createdAt,value
2019-05-20T00:01:33.441Z,24.33
2019-05-20T00:04:02.979Z,24.43
2019-05-20T00:06:32.450Z,25.70
2019-05-20T00:09:02.071Z,27.07
2019-05-20T00:11:31.720Z,27.33
2019-05-20T00:14:01.224Z,28.70
2019-05-20T00:16:30.723Z,29.30
2019-05-20T00:19:00.267Z,30.70
2019-05-20T00:21:29.799Z,29.13
2019-05-20T00:23:59.291Z,30.60
2019-05-20T00:26:28.813Z,26.43
2019-05-20T00:28:58.305Z,27.33
2019-05-20T00:31:28.332Z,28.40
2019-05-20T00:33:57.822Z,30.30
2019-05-20T00:36:27.310Z,29.50
2019-05-20T00:39:14.655Z,26.17
2019-05-20T00:41:44.155Z,27.03
2019-05-20T00:44:13.735Z,27.10
2019-05-20T00:46:43.188Z,29.00
2019-05-20T00:49:12.726Z,29.43
2019-05-20T00:51:42.986Z,28.93
2019-05-20T00:54:12.686Z,29.07
2019-05-20T00:56:42.924Z,29.90
2019-05-20T00:59:12.436Z,27.63
2019-05-20T01:01:41.950Z,28.47
2019-05-20T01:04:11.827Z,28.83
2019-05-20T01:06:41.475Z,31.40
2019-05-20T01:09:11.023Z,30.00
2019-05-20T01:11:40.523Z,28.33
2019-05-20T01:14:10.047Z,32.00
2019-05-20T01:16:40.075Z,29.63
2019-05-20T01:19:09.711Z,35.37
2019-05-20T01:21:39.200Z,32.67
2019-05-20T01:24:08.720Z,32.00
2019-05-20T01:26:38.621Z,32.03
2019-05-20T01:29:08.134Z,35.00
2019-05-20T01:31:37.634Z,34.27
2019-05-20T01:34:07.218Z,38.33
2019-05-20T01:36:36.700Z,37.83
2019-05-20T01:39:07.603Z,33.30
2019-05-20T01:41:37.086Z,32.30
2019-05-20T01:44:06.892Z,32.33
2019-05-20T01:46:36.434Z,32.20
2019-05-20T01:49:05.954Z,37.00
2019-05-20T01:51:35.463Z,36.30
2019-05-20T01:54:05.048Z,36.37
2019-05-20T01:56:34.927Z,36.00
2019-05-20T01:59:04.442Z,35.80
2019-05-20T02:01:34.372Z,36.63
2019-05-20T02:04:03.859Z,37.03
2019-05-20T02:06:33.524Z,41.83
2019-05-20T02:09:03.080Z,47.03
2019-05-20T02:11:32.569Z,50.30
2019-05-20T02:14:06.508Z,46.40
2019-05-20T02:16:36.022Z,49.03
2019-05-20T02:19:05.877Z,48.80
2019-05-20T02:21:35.814Z,51.70
2019-05-20T02:24:05.359Z,46.83
2019-05-20T02:26:34.896Z,48.87
2019-05-20T02:29:04.843Z,51.90
2019-05-20T02:31:34.353Z,50.13
2019-05-20T02:34:03.909Z,51.40
2019-05-20T02:36:34.199Z,53.50
2019-05-20T02:39:05.137Z,52.93
2019-05-20T02:41:34.634Z,54.63
2019-05-20T02:44:04.280Z,53.27
2019-05-20T02:46:34.144Z,56.43
2019-05-20T02:49:03.648Z,56.00
2019-05-20T02:51:33.392Z,52.90
2019-05-20T02:54:03.896Z,56.27
2019-05-20T02:56:33.470Z,56.40
2019-05-20T02:59:02.939Z,59.07
2019-05-20T03:01:32.431Z,58.67
2019-05-20T03:04:11.635Z,64.37
2019-05-20T03:06:33.106Z,60.27
2019-05-20T03:09:02.689Z,58.43
2019-05-20T03:11:32.193Z,57.20
2019-05-20T03:14:01.711Z,64.23
2019-05-20T03:16:31.201Z,58.10
2019-05-20T03:19:00.711Z,62.53
2019-05-20T03:21:30.211Z,55.60
2019-05-20T03:23:59.727Z,59.63
2019-05-20T03:26:29.256Z,57.90
2019-05-20T03:28:58.775Z,56.87
2019-05-20T03:31:28.287Z,57.83
2019-05-20T03:33:58.249Z,62.37
2019-05-20T03:36:27.743Z,60.80
2019-05-20T03:38:57.255Z,58.60
2019-05-20T03:41:26.799Z,61.40
2019-05-20T03:43:56.303Z,60.60
2019-05-20T03:46:25.820Z,60.97
2019-05-20T03:48:55.319Z,63.00
2019-05-20T03:51:24.839Z,59.37
2019-05-20T03:53:54.487Z,60.43
2019-05-20T03:56:24.034Z,56.90
2019-05-20T03:58:53.996Z,57.37
2019-05-20T04:01:23.619Z,56.03
2019-05-20T04:03:53.494Z,56.90
2019-05-20T04:06:23.023Z,59.63
2019-05-20T04:08:52.568Z,54.90
2019-05-20T04:11:22.084Z,57.77
2019-05-20T04:13:51.575Z,61.77
2019-05-20T04:16:21.121Z,57.97
2019-05-20T04:18:54.021Z,59.63
2019-05-20T04:21:22.178Z,60.67
2019-05-20T04:23:52.136Z,58.00
2019-05-20T04:26:21.714Z,60.70
2019-05-20T04:28:51.254Z,59.67
2019-05-20T04:31:21.160Z,64.37
2019-05-20T04:33:50.686Z,63.27
2019-05-20T04:36:20.251Z,63.57
2019-05-20T04:38:50.526Z,62.90
2019-05-20T04:41:20.179Z,61.97
2019-05-20T04:43:50.316Z,56.10
2019-05-20T04:46:20.153Z,59.17
2019-05-20T04:48:49.650Z,58.17
2019-05-20T04:51:19.197Z,56.80
2019-05-20T04:53:48.731Z,54.73
2019-05-20T04:56:18.263Z,54.53
2019-05-20T04:58:47.780Z,54.43
2019-05-20T05:01:17.626Z,56.80
2019-05-20T05:03:47.187Z,56.17
2019-05-20T05:06:16.819Z,56.57
2019-05-20T05:08:46.460Z,53.43
2019-05-20T05:11:16.422Z,52.37
2019-05-20T05:13:45.974Z,54.70
2019-05-20T05:16:15.946Z,53.27
2019-05-20T05:18:45.597Z,51.87
2019-05-20T05:21:15.103Z,52.43
2019-05-20T05:23:58.266Z,54.10
2019-05-20T05:26:16.232Z,55.47
2019-05-20T05:28:46.639Z,52.30
2019-05-20T05:31:16.859Z,50.77
2019-05-20T05:33:46.454Z,51.83
2019-05-20T05:36:15.979Z,61.37
2019-05-20T05:38:45.474Z,51.70
2019-05-20T05:41:15.318Z,48.30
2019-05-20T05:43:44.807Z,48.70
2019-05-20T05:46:14.364Z,47.00
2019-05-20T05:48:44.276Z,46.07
2019-05-20T05:51:14.433Z,44.10
2019-05-20T05:53:44.698Z,45.30
2019-05-20T05:56:15.425Z,50.83
2019-05-20T05:58:44.917Z,44.63
2019-05-20T06:01:14.575Z,41.23
2019-05-20T06:03:44.230Z,42.20
2019-05-20T06:06:13.873Z,43.20
2019-05-20T06:08:43.951Z,43.93
2019-05-20T06:11:13.511Z,43.47
2019-05-20T06:13:43.455Z,43.20
2019-05-20T06:16:12.955Z,40.87
2019-05-20T06:18:42.844Z,44.57
2019-05-20T06:21:12.517Z,44.03
2019-05-20T06:23:42.637Z,43.47
2019-05-20T06:26:12.693Z,44.63
2019-05-20T06:28:42.191Z,44.30
2019-05-20T06:31:11.758Z,44.17
2019-05-20T06:33:42.661Z,42.67
2019-05-20T06:36:25.941Z,43.40
2019-05-20T06:38:46.239Z,41.57
2019-05-20T06:41:16.155Z,43.53
2019-05-20T06:43:45.791Z,42.23
2019-05-20T06:46:15.911Z,40.87
2019-05-20T06:48:45.779Z,39.40
2019-05-20T06:51:15.350Z,38.97
2019-05-20T06:53:46.204Z,39.93
2019-05-20T06:56:16.171Z,39.40
2019-05-20T06:58:45.813Z,40.23
2019-05-20T07:01:16.139Z,38.97
2019-05-20T07:03:45.643Z,39.50
2019-05-20T07:06:15.189Z,39.37
2019-05-20T07:08:45.191Z,37.47
2019-05-20T07:11:14.802Z,38.57
2019-05-20T07:13:44.572Z,38.50
2019-05-20T07:16:14.208Z,37.97
2019-05-20T07:18:43.751Z,37.50
2019-05-20T07:21:13.250Z,37.60
2019-05-20T07:23:42.774Z,37.30
2019-05-20T07:26:12.264Z,36.67
2019-05-20T07:28:41.816Z,36.17
2019-05-20T07:31:11.305Z,36.70
2019-05-20T07:33:41.208Z,36.13
2019-05-20T07:36:10.722Z,36.80
2019-05-20T07:38:40.598Z,38.07
2019-05-20T07:41:10.145Z,35.90
2019-05-20T07:43:39.654Z,35.00
2019-05-20T07:46:10.449Z,35.83
2019-05-20T07:48:41.055Z,36.63
2019-05-20T07:51:11.856Z,37.73
2019-05-20T07:53:42.292Z,38.90
2019-05-20T07:56:15.976Z,36.90
2019-05-20T07:58:49.474Z,37.00
2019-05-20T08:01:19.217Z,38.30
2019-05-20T08:03:48.749Z,36.93
2019-05-20T08:06:18.264Z,36.50
2019-05-20T08:08:47.776Z,36.47
2019-05-20T08:11:17.317Z,36.33
2019-05-20T08:13:47.268Z,39.10
2019-05-20T08:16:17.156Z,40.83
2019-05-20T08:18:46.761Z,41.97
2019-05-20T08:21:16.347Z,38.73
2019-05-20T08:23:49.591Z,39.63
2019-05-20T08:26:17.067Z,39.53
2019-05-20T08:28:46.590Z,39.87
2019-05-20T08:31:16.532Z,38.30
2019-05-20T08:33:46.032Z,37.50
2019-05-20T08:36:15.599Z,35.87
2019-05-20T08:38:45.131Z,35.83
2019-05-20T08:41:14.713Z,35.87
2019-05-20T08:43:44.396Z,35.30
2019-05-20T08:46:13.969Z,35.50
2019-05-20T08:48:43.548Z,34.90
2019-05-20T08:51:13.046Z,37.30
2019-05-20T08:53:43.313Z,38.10
2019-05-20T08:56:12.882Z,36.40
2019-05-20T08:58:42.380Z,36.80
2019-05-20T09:01:12.366Z,35.50
2019-05-20T09:03:42.165Z,36.60
2019-05-20T09:06:12.333Z,37.00
2019-05-20T09:08:41.834Z,35.70
2019-05-20T09:11:11.375Z,36.70
2019-05-20T09:13:40.899Z,36.97
2019-05-20T09:16:10.767Z,36.03
2019-05-20T09:18:40.295Z,39.30
2019-05-20T09:21:10.581Z,38.97
2019-05-20T09:23:40.382Z,37.97
2019-05-20T09:26:09.916Z,36.90
2019-05-20T09:28:39.441Z,41.77
2019-05-20T09:31:09.093Z,37.70
2019-05-20T09:33:39.308Z,37.83
2019-05-20T09:36:09.190Z,38.10
2019-05-20T09:38:38.922Z,39.10
2019-05-20T09:41:08.803Z,36.03
2019-05-20T09:43:38.693Z,38.37
2019-05-20T09:46:08.536Z,40.23
2019-05-20T09:48:38.519Z,37.87
2019-05-20T09:51:08.007Z,36.63
2019-05-20T09:53:37.530Z,36.17
2019-05-20T09:56:07.039Z,35.03
2019-05-20T09:58:36.729Z,34.70
2019-05-20T10:01:06.610Z,35.17
2019-05-20T10:03:36.534Z,38.57
2019-05-20T10:06:06.059Z,35.77
2019-05-20T10:08:40.895Z,36.00
2019-05-20T10:11:06.864Z,36.27
2019-05-20T10:13:36.479Z,36.07
2019-05-20T10:16:05.970Z,38.30
2019-05-20T10:18:37.855Z,38.70
2019-05-20T10:21:06.720Z,37.90
2019-05-20T10:23:36.255Z,38.57
2019-05-20T10:26:06.079Z,38.07
2019-05-20T10:28:35.762Z,37.87
2019-05-20T10:31:05.257Z,39.50
2019-05-20T10:33:36.933Z,37.80
2019-05-20T10:36:05.927Z,40.10
2019-05-20T10:38:35.575Z,39.50
2019-05-20T10:41:05.235Z,39.43
2019-05-20T10:43:34.779Z,41.47
2019-05-20T10:46:04.368Z,39.97
2019-05-20T10:48:34.308Z,42.20
2019-05-20T10:51:03.850Z,40.90
2019-05-20T10:53:33.740Z,41.90
2019-05-20T10:56:03.424Z,41.73
2019-05-20T10:58:33.508Z,43.17
2019-05-20T11:01:03.872Z,42.30
2019-05-20T11:03:33.748Z,43.23
2019-05-20T11:06:03.630Z,43.37
2019-05-20T11:08:33.261Z,42.40
2019-05-20T11:11:02.927Z,42.07
2019-05-20T11:13:32.543Z,43.93
2019-05-20T11:16:02.090Z,42.40
2019-05-20T11:18:32.376Z,42.43
2019-05-20T11:21:01.970Z,45.07
2019-05-20T11:23:31.671Z,41.13
2019-05-20T11:26:01.206Z,44.93
2019-05-20T11:28:30.759Z,43.77
2019-05-20T11:31:00.735Z,43.90
2019-05-20T11:33:30.314Z,44.73
2019-05-20T11:35:59.983Z,43.73
2019-05-20T11:38:29.849Z,45.33
2019-05-20T11:40:59.377Z,43.10
2019-05-20T11:43:28.874Z,42.00
2019-05-20T11:45:58.432Z,42.80
2019-05-20T11:48:28.306Z,43.57
2019-05-20T11:50:57.790Z,43.33
2019-05-20T11:53:27.306Z,42.57
2019-05-20T11:55:57.177Z,42.60
2019-05-20T11:58:26.858Z,40.83
2019-05-20T12:00:56.403Z,43.37
2019-05-20T12:03:26.737Z,42.60
2019-05-20T12:05:56.695Z,40.03
2019-05-20T12:08:26.630Z,39.60
2019-05-20T12:10:56.503Z,37.73
2019-05-20T12:13:26.483Z,35.00
2019-05-20T12:15:56.302Z,35.10
2019-05-20T12:18:26.124Z,36.80
2019-05-20T12:20:55.672Z,35.93
2019-05-20T12:23:25.254Z,36.33
2019-05-20T12:25:54.742Z,36.10
2019-05-20T12:28:24.246Z,35.50
2019-05-20T12:30:53.763Z,36.40
2019-05-20T12:33:23.648Z,36.90
2019-05-20T12:35:53.159Z,35.40
2019-05-20T12:38:22.636Z,36.30
2019-05-20T12:40:52.146Z,35.03
2019-05-20T12:43:22.131Z,35.27
2019-05-20T12:45:51.644Z,37.87
2019-05-20T12:48:21.155Z,35.37
2019-05-20T12:50:50.668Z,39.53
2019-05-20T12:53:20.788Z,34.37
2019-05-20T12:55:50.633Z,34.90
2019-05-20T12:58:20.154Z,35.57
2019-05-20T13:00:50.414Z,37.30
2019-05-20T13:03:20.809Z,36.50
2019-05-20T13:05:50.378Z,36.37
2019-05-20T13:08:20.219Z,36.70
2019-05-20T13:10:49.833Z,36.20
2019-05-20T13:13:19.491Z,37.20
2019-05-20T13:15:49.034Z,33.70
2019-05-20T13:18:18.870Z,36.80
2019-05-20T13:20:49.171Z,35.63
2019-05-20T13:23:18.984Z,34.80
2019-05-20T13:25:48.546Z,35.53
2019-05-20T13:28:18.203Z,34.90
2019-05-20T13:30:48.222Z,33.97
2019-05-20T13:33:18.160Z,34.80
2019-05-20T13:35:47.715Z,32.60
2019-05-20T13:38:17.276Z,34.50
2019-05-20T13:40:47.523Z,34.33
2019-05-20T13:43:17.517Z,33.77
2019-05-20T13:45:48.230Z,33.67
2019-05-20T13:48:18.049Z,34.50
2019-05-20T13:50:47.523Z,34.60
2019-05-20T13:53:17.038Z,32.37
2019-05-20T13:55:46.527Z,34.83
2019-05-20T13:58:16.108Z,32.30
2019-05-20T14:00:45.988Z,32.93
2019-05-20T14:03:15.523Z,34.93
2019-05-20T14:05:45.044Z,36.90
2019-05-20T14:08:14.622Z,34.13
2019-05-20T14:10:44.177Z,35.03
2019-05-20T14:13:13.717Z,35.60
2019-05-20T14:15:43.243Z,33.90
2019-05-20T14:18:12.781Z,34.03
2019-05-20T14:20:42.746Z,32.00
2019-05-20T14:23:12.974Z,31.70
2019-05-20T14:25:42.569Z,32.80
2019-05-20T14:28:12.327Z,32.30
2019-05-20T14:30:42.033Z,32.70
2019-05-20T14:33:11.557Z,34.20
2019-05-20T14:35:41.130Z,31.70
2019-05-20T14:38:11.190Z,33.67
2019-05-20T14:40:41.234Z,33.47
2019-05-20T14:43:10.769Z,33.00
2019-05-20T14:45:41.032Z,31.17
2019-05-20T14:48:10.702Z,31.30
2019-05-20T14:50:40.252Z,30.40
2019-05-20T14:53:10.268Z,33.90
2019-05-20T14:55:42.622Z,30.37
2019-05-20T14:58:11.418Z,32.00
2019-05-20T15:00:41.643Z,29.93
2019-05-20T15:03:11.147Z,31.00
2019-05-20T15:05:40.815Z,30.77
2019-05-20T15:08:10.955Z,30.37
2019-05-20T15:10:40.825Z,32.40
2019-05-20T15:13:10.359Z,32.00
2019-05-20T15:15:40.080Z,28.73
2019-05-20T15:18:09.931Z,29.67
2019-05-20T15:20:39.462Z,28.80
2019-05-20T15:23:09.004Z,29.97
2019-05-20T15:25:54.319Z,30.80
2019-05-20T15:28:19.813Z,27.73
2019-05-20T15:31:20.343Z,31.20
2019-05-20T15:33:50.383Z,31.07
2019-05-20T15:36:20.354Z,30.83
2019-05-20T15:38:50.346Z,32.27
2019-05-20T15:41:19.868Z,29.77
2019-05-20T15:43:49.351Z,32.50
2019-05-20T15:46:19.243Z,31.37
2019-05-20T15:48:48.895Z,32.17
2019-05-20T15:51:18.774Z,30.47
2019-05-20T15:53:48.299Z,29.17
2019-05-20T15:56:19.256Z,30.57
2019-05-20T15:58:49.113Z,31.27
2019-05-20T16:01:18.848Z,33.77
2019-05-20T16:03:51.322Z,34.47
2019-05-20T16:06:19.855Z,36.10
2019-05-20T16:08:49.360Z,34.73
2019-05-20T16:11:18.819Z,35.57
2019-05-20T16:13:48.416Z,35.00
2019-05-20T16:16:18.839Z,36.33
2019-05-20T16:18:48.605Z,37.10
2019-05-20T16:21:18.119Z,35.20
2019-05-20T16:23:47.718Z,35.37
2019-05-20T16:26:17.317Z,35.70
2019-05-20T16:28:47.318Z,35.40
2019-05-20T16:31:17.022Z,33.93
2019-05-20T16:33:46.931Z,34.00
2019-05-20T16:36:17.003Z,35.17
2019-05-20T16:38:46.859Z,33.77
2019-05-20T16:41:16.419Z,34.67
2019-05-20T16:43:45.937Z,36.10
2019-05-20T16:46:15.487Z,36.30
2019-05-20T16:48:44.993Z,35.00
2019-05-20T16:51:14.581Z,37.90
2019-05-20T16:53:44.091Z,39.83
2019-05-20T16:56:13.874Z,38.30
2019-05-20T16:58:43.501Z,36.47
2019-05-20T17:01:13.065Z,38.23
2019-05-20T17:03:43.857Z,38.97
2019-05-20T17:06:13.450Z,38.40
2019-05-20T17:08:43.074Z,39.07
2019-05-20T17:11:12.586Z,38.30
2019-05-20T17:13:42.754Z,37.73
2019-05-20T17:16:12.306Z,38.07
2019-05-20T17:18:42.228Z,39.70
2019-05-20T17:21:11.757Z,39.43
2019-05-20T17:23:41.751Z,38.80
2019-05-20T17:26:11.284Z,40.47
2019-05-20T17:28:40.806Z,38.67
2019-05-20T17:31:10.486Z,40.40
2019-05-20T17:33:40.423Z,38.70
2019-05-20T17:36:10.165Z,40.77
2019-05-20T17:38:39.845Z,39.20
2019-05-20T17:41:11.843Z,38.10
2019-05-20T17:43:41.383Z,37.03
2019-05-20T17:46:10.972Z,39.40
2019-05-20T17:48:41.266Z,37.27
2019-05-20T17:51:10.969Z,37.50
2019-05-20T17:53:40.532Z,36.50
2019-05-20T17:56:10.115Z,37.70
2019-05-20T17:58:39.648Z,34.77
2019-05-20T18:01:15.332Z,35.23
2019-05-20T18:03:40.379Z,37.20
2019-05-20T18:06:09.928Z,36.00
2019-05-20T18:08:42.736Z,37.03
2019-05-20T18:11:12.278Z,34.23
2019-05-20T18:13:41.866Z,35.37
2019-05-20T18:16:11.852Z,37.00
2019-05-20T18:18:41.354Z,34.47
2019-05-20T18:21:11.349Z,37.20
2019-05-20T18:23:40.867Z,35.60
2019-05-20T18:26:10.426Z,35.00
2019-05-20T18:28:40.283Z,33.00
2019-05-20T18:31:09.864Z,35.63
2019-05-20T18:33:39.736Z,35.27
2019-05-20T18:36:09.562Z,34.30
2019-05-20T18:38:39.515Z,34.37
2019-05-20T18:41:09.004Z,35.90
2019-05-20T18:43:39.069Z,34.60
2019-05-20T18:46:08.879Z,34.87
2019-05-20T18:48:38.443Z,33.07
2019-05-20T18:51:08.322Z,32.53
2019-05-20T18:53:37.930Z,35.20
2019-05-20T18:56:07.480Z,34.27
2019-05-20T18:58:37.433Z,31.83
2019-05-20T19:01:07.407Z,33.33
2019-05-20T19:03:37.496Z,35.27
2019-05-20T19:06:08.519Z,31.80
2019-05-20T19:08:38.803Z,32.40
2019-05-20T19:11:09.283Z,30.57
2019-05-20T19:13:38.922Z,29.00
2019-05-20T19:16:08.633Z,29.00
2019-05-20T19:18:38.703Z,28.53
2019-05-20T19:21:08.937Z,28.63
2019-05-20T19:23:39.330Z,28.60
2019-05-20T19:26:22.501Z,28.07
2019-05-20T19:28:41.347Z,28.00
2019-05-20T19:31:10.846Z,28.67
2019-05-20T19:33:40.711Z,28.20
2019-05-20T19:36:10.295Z,26.60
2019-05-20T19:38:39.861Z,27.73
2019-05-20T19:41:09.373Z,27.93
2019-05-20T19:43:39.491Z,28.00
2019-05-20T19:46:08.983Z,28.60
2019-05-20T19:48:38.897Z,26.20
2019-05-20T19:51:08.810Z,27.17
2019-05-20T19:53:38.330Z,27.17
2019-05-20T19:56:08.064Z,28.20
2019-05-20T19:58:37.609Z,27.80
2019-05-20T20:01:07.192Z,27.60
2019-05-20T20:03:36.997Z,28.97
2019-05-20T20:06:06.687Z,28.33
2019-05-20T20:08:36.726Z,26.00
2019-05-20T20:11:09.154Z,26.33
2019-05-20T20:13:39.312Z,26.03
2019-05-20T20:16:08.895Z,25.97
2019-05-20T20:18:39.242Z,25.03
2019-05-20T20:21:09.337Z,25.37
2019-05-20T20:23:38.917Z,27.00
2019-05-20T20:26:08.579Z,25.20
2019-05-20T20:28:38.322Z,29.87
2019-05-20T20:31:10.873Z,26.20
2019-05-20T20:33:39.621Z,26.93
2019-05-20T20:36:09.173Z,26.27
2019-05-20T20:38:39.658Z,26.07
2019-05-20T20:41:09.571Z,27.70
2019-05-20T20:43:39.508Z,25.73
2019-05-20T20:46:09.659Z,26.53
2019-05-20T20:48:39.235Z,27.70
2019-05-20T20:51:09.264Z,26.17
2019-05-20T20:53:39.714Z,26.43
2019-05-20T20:56:24.067Z,25.67
2019-05-20T20:58:40.735Z,27.80
2019-05-20T21:01:10.270Z,27.30
2019-05-20T21:03:39.795Z,24.13
2019-05-20T21:06:09.359Z,24.03
2019-05-20T21:08:39.545Z,23.60
2019-05-20T21:11:09.148Z,22.57
2019-05-20T21:13:38.679Z,23.10
2019-05-20T21:16:08.229Z,22.80
2019-05-20T21:18:38.363Z,20.90
2019-05-20T21:21:08.367Z,21.67
2019-05-20T21:23:38.270Z,21.07
2019-05-20T21:26:07.806Z,23.40
2019-05-20T21:28:37.752Z,22.90
2019-05-20T21:31:07.494Z,21.90
2019-05-20T21:33:37.001Z,21.57
2019-05-20T21:36:06.502Z,22.90
2019-05-20T21:38:36.652Z,20.67
2019-05-20T21:41:06.168Z,21.40
2019-05-20T21:43:36.067Z,21.50
2019-05-20T21:46:05.599Z,19.13
2019-05-20T21:48:35.118Z,20.70
2019-05-20T21:51:04.650Z,23.63
2019-05-20T21:53:34.152Z,20.33
2019-05-20T21:56:04.105Z,21.23
2019-05-20T21:58:33.635Z,19.83
2019-05-20T22:01:04.179Z,21.00
2019-05-20T22:03:34.512Z,19.53
2019-05-20T22:06:04.113Z,21.33
2019-05-20T22:08:33.626Z,19.50
2019-05-20T22:11:03.161Z,19.30
2019-05-20T22:13:32.704Z,17.40
2019-05-20T22:16:02.270Z,17.20
2019-05-20T22:18:31.813Z,17.43
2019-05-20T22:21:01.726Z,16.97
2019-05-20T22:23:45.467Z,19.40
2019-05-20T22:26:14.986Z,17.43
2019-05-20T22:28:44.490Z,16.40
2019-05-20T22:31:14.044Z,19.23
2019-05-20T22:33:43.550Z,18.80
2019-05-20T22:36:13.043Z,17.10
2019-05-20T22:38:42.684Z,17.63
2019-05-20T22:41:12.198Z,18.00
2019-05-20T22:43:41.695Z,19.20
2019-05-20T22:46:11.469Z,19.43
2019-05-20T22:48:42.156Z,18.23
2019-05-20T22:51:11.818Z,18.70
2019-05-20T22:53:41.367Z,18.43
2019-05-20T22:56:10.882Z,17.67
2019-05-20T22:58:40.456Z,17.60
2019-05-20T23:01:09.950Z,20.47
2019-05-20T23:03:39.488Z,17.63
2019-05-20T23:06:09.008Z,18.50
2019-05-20T23:08:38.971Z,18.50
2019-05-20T23:11:08.809Z,19.27
2019-05-20T23:13:38.322Z,18.73
2019-05-20T23:16:07.907Z,18.50
2019-05-20T23:18:37.462Z,18.87
2019-05-20T23:21:07.004Z,18.67
2019-05-20T23:23:37.383Z,18.30
2019-05-20T23:26:06.882Z,18.47
2019-05-20T23:28:36.692Z,19.10
2019-05-20T23:31:06.567Z,17.37
2019-05-20T23:33:36.080Z,19.33
2019-05-20T23:36:05.608Z,18.87
2019-05-20T23:38:35.111Z,20.33
2019-05-20T23:41:04.822Z,20.80
2019-05-20T23:43:34.317Z,22.27
2019-05-20T23:46:04.151Z,23.00
2019-05-20T23:48:33.679Z,22.00
2019-05-20T23:51:03.319Z,23.63
2019-05-20T23:53:32.823Z,27.53
2019-05-20T23:56:02.475Z,25.23
2019-05-20T23:58:31.971Z,26.90
